sensor_id;sensor_type;location;lat;lon;timestamp;P1;durP1;ratioP1;P2;durP2;ratioP2
11709;SDS011;5911;51.036;6.972;2023-03-20T00:00:29;13.10;;;11.20;;
11709;SDS011;5911;51.036;6.972;2023-03-20T00:02:59;14.50;;;11.40;;
11709;SDS011;5911;51.036;6.972;2023-03-20T00:05:28;13.43;;;10.90;;
11709;SDS011;5911;51.036;6.972;2023-03-20T00:07:57;13.00;;;10.90;;
11709;SDS011;5911;51.036;6.972;2023-03-20T00:10:33;16.03;;;11.83;;
11709;SDS011;5911;51.036;6.972;2023-03-20T00:13:04;13.00;;;11.40;;
11709;SDS011;5911;51.036;6.972;2023-03-20T00:15:34;16.53;;;12.40;;
11709;SDS011;5911;51.036;6.972;2023-03-20T00:18:08;13.90;;;11.23;;
11709;SDS011;5911;51.036;6.972;2023-03-20T00:20:40;14.70;;;11.00;;
11709;SDS011;5911;51.036;6.972;2023-03-20T00:23:08;14.50;;;11.27;;
11709;SDS011;5911;51.036;6.972;2023-03-20T00:25:36;13.30;;;10.67;;
11709;SDS011;5911;51.036;6.972;2023-03-20T00:28:12;12.93;;;11.47;;
11709;SDS011;5911;51.036;6.972;2023-03-20T00:30:56;16.80;;;11.47;;
11709;SDS011;5911;51.036;6.972;2023-03-20T00:33:23;12.63;;;10.30;;
11709;SDS011;5911;51.036;6.972;2023-03-20T00:35:52;14.63;;;11.90;;
11709;SDS011;5911;51.036;6.972;2023-03-20T00:38:20;14.77;;;10.67;;
11709;SDS011;5911;51.036;6.972;2023-03-20T00:40:48;16.27;;;10.60;;
11709;SDS011;5911;51.036;6.972;2023-03-20T00:43:17;13.27;;;11.13;;
11709;SDS011;5911;51.036;6.972;2023-03-20T00:45:45;15.90;;;11.25;;
11709;SDS011;5911;51.036;6.972;2023-03-20T00:48:13;14.20;;;11.37;;
11709;SDS011;5911;51.036;6.972;2023-03-20T00:50:42;15.13;;;11.73;;
11709;SDS011;5911;51.036;6.972;2023-03-20T00:53:10;13.17;;;10.53;;
11709;SDS011;5911;51.036;6.972;2023-03-20T00:55:38;15.20;;;11.10;;
11709;SDS011;5911;51.036;6.972;2023-03-20T00:58:08;14.70;;;10.87;;
11709;SDS011;5911;51.036;6.972;2023-03-20T01:00:39;12.97;;;10.27;;
11709;SDS011;5911;51.036;6.972;2023-03-20T01:03:13;13.63;;;11.17;;
11709;SDS011;5911;51.036;6.972;2023-03-20T01:05:46;15.17;;;11.57;;
11709;SDS011;5911;51.036;6.972;2023-03-20T01:08:17;14.07;;;11.60;;
11709;SDS011;5911;51.036;6.972;2023-03-20T01:10:48;13.20;;;10.90;;
11709;SDS011;5911;51.036;6.972;2023-03-20T01:13:18;16.07;;;11.00;;
11709;SDS011;5911;51.036;6.972;2023-03-20T01:15:49;14.07;;;10.63;;
11709;SDS011;5911;51.036;6.972;2023-03-20T01:18:18;15.50;;;11.07;;
11709;SDS011;5911;51.036;6.972;2023-03-20T01:20:48;13.83;;;10.37;;
11709;SDS011;5911;51.036;6.972;2023-03-20T01:23:18;13.60;;;11.23;;
11709;SDS011;5911;51.036;6.972;2023-03-20T01:25:48;17.37;;;12.37;;
11709;SDS011;5911;51.036;6.972;2023-03-20T01:28:17;13.97;;;11.47;;
11709;SDS011;5911;51.036;6.972;2023-03-20T01:30:46;15.40;;;11.67;;
11709;SDS011;5911;51.036;6.972;2023-03-20T01:33:17;15.87;;;12.67;;
11709;SDS011;5911;51.036;6.972;2023-03-20T01:35:51;15.70;;;12.33;;
11709;SDS011;5911;51.036;6.972;2023-03-20T01:38:20;17.00;;;13.10;;
11709;SDS011;5911;51.036;6.972;2023-03-20T01:40:53;17.77;;;12.77;;
11709;SDS011;5911;51.036;6.972;2023-03-20T01:43:27;16.13;;;12.87;;
11709;SDS011;5911;51.036;6.972;2023-03-20T01:45:57;17.27;;;13.57;;
11709;SDS011;5911;51.036;6.972;2023-03-20T01:51:27;16.47;;;12.97;;
11709;SDS011;5911;51.036;6.972;2023-03-20T01:54:03;17.38;;;12.57;;
11709;SDS011;5911;51.036;6.972;2023-03-20T01:56:42;17.87;;;14.23;;
11709;SDS011;5911;51.036;6.972;2023-03-20T01:59:14;16.87;;;13.50;;
11709;SDS011;5911;51.036;6.972;2023-03-20T02:01:45;16.67;;;14.10;;
11709;SDS011;5911;51.036;6.972;2023-03-20T02:04:16;17.00;;;13.53;;
11709;SDS011;5911;51.036;6.972;2023-03-20T02:06:55;18.80;;;13.43;;
11709;SDS011;5911;51.036;6.972;2023-03-20T02:09:34;16.30;;;13.47;;
11709;SDS011;5911;51.036;6.972;2023-03-20T02:12:06;17.45;;;13.50;;
11709;SDS011;5911;51.036;6.972;2023-03-20T02:14:36;18.70;;;13.73;;
11709;SDS011;5911;51.036;6.972;2023-03-20T02:17:31;17.77;;;13.57;;
11709;SDS011;5911;51.036;6.972;2023-03-20T02:20:06;16.47;;;13.57;;
11709;SDS011;5911;51.036;6.972;2023-03-20T02:26:08;17.10;;;13.43;;
11709;SDS011;5911;51.036;6.972;2023-03-20T02:29:08;16.10;;;12.77;;
11709;SDS011;5911;51.036;6.972;2023-03-20T02:38:17;18.10;;;13.77;;
11709;SDS011;5911;51.036;6.972;2023-03-20T02:40:57;17.97;;;13.63;;
11709;SDS011;5911;51.036;6.972;2023-03-20T02:43:32;18.70;;;13.63;;
11709;SDS011;5911;51.036;6.972;2023-03-20T02:46:11;20.37;;;13.67;;
11709;SDS011;5911;51.036;6.972;2023-03-20T02:48:50;19.03;;;13.90;;
11709;SDS011;5911;51.036;6.972;2023-03-20T02:51:26;18.00;;;13.57;;
11709;SDS011;5911;51.036;6.972;2023-03-20T02:54:06;16.13;;;13.17;;
11709;SDS011;5911;51.036;6.972;2023-03-20T02:56:39;18.00;;;14.10;;
11709;SDS011;5911;51.036;6.972;2023-03-20T02:59:16;16.97;;;12.97;;
11709;SDS011;5911;51.036;6.972;2023-03-20T03:01:51;17.97;;;14.20;;
11709;SDS011;5911;51.036;6.972;2023-03-20T03:04:23;17.33;;;14.27;;
11709;SDS011;5911;51.036;6.972;2023-03-20T03:06:53;16.87;;;13.87;;
11709;SDS011;5911;51.036;6.972;2023-03-20T03:09:27;18.67;;;13.87;;
11709;SDS011;5911;51.036;6.972;2023-03-20T03:11:59;18.23;;;13.50;;
11709;SDS011;5911;51.036;6.972;2023-03-20T03:14:34;17.90;;;13.40;;
11709;SDS011;5911;51.036;6.972;2023-03-20T03:17:10;19.97;;;14.10;;
11709;SDS011;5911;51.036;6.972;2023-03-20T03:19:41;18.17;;;13.23;;
11709;SDS011;5911;51.036;6.972;2023-03-20T03:22:13;18.23;;;12.60;;
11709;SDS011;5911;51.036;6.972;2023-03-20T03:24:44;17.73;;;13.23;;
11709;SDS011;5911;51.036;6.972;2023-03-20T03:27:16;17.70;;;14.33;;
11709;SDS011;5911;51.036;6.972;2023-03-20T03:29:48;23.37;;;14.43;;
11709;SDS011;5911;51.036;6.972;2023-03-20T03:32:22;17.73;;;12.77;;
11709;SDS011;5911;51.036;6.972;2023-03-20T03:34:54;19.47;;;14.07;;
11709;SDS011;5911;51.036;6.972;2023-03-20T03:37:26;16.63;;;13.93;;
11709;SDS011;5911;51.036;6.972;2023-03-20T03:40:03;18.03;;;14.13;;
11709;SDS011;5911;51.036;6.972;2023-03-20T03:42:37;20.70;;;14.83;;
11709;SDS011;5911;51.036;6.972;2023-03-20T03:45:09;19.07;;;14.90;;
11709;SDS011;5911;51.036;6.972;2023-03-20T03:47:44;20.67;;;13.93;;
11709;SDS011;5911;51.036;6.972;2023-03-20T03:50:19;18.77;;;14.03;;
11709;SDS011;5911;51.036;6.972;2023-03-20T03:52:50;21.80;;;14.77;;
11709;SDS011;5911;51.036;6.972;2023-03-20T03:55:23;18.27;;;14.97;;
11709;SDS011;5911;51.036;6.972;2023-03-20T03:58:01;19.27;;;14.70;;
11709;SDS011;5911;51.036;6.972;2023-03-20T04:00:31;18.63;;;14.43;;
11709;SDS011;5911;51.036;6.972;2023-03-20T04:03:01;17.87;;;14.33;;
11709;SDS011;5911;51.036;6.972;2023-03-20T04:05:32;16.90;;;13.83;;
11709;SDS011;5911;51.036;6.972;2023-03-20T04:08:05;20.00;;;13.93;;
11709;SDS011;5911;51.036;6.972;2023-03-20T04:10:34;17.63;;;13.50;;
11709;SDS011;5911;51.036;6.972;2023-03-20T04:13:02;18.40;;;13.77;;
11709;SDS011;5911;51.036;6.972;2023-03-20T04:15:30;17.87;;;13.67;;
11709;SDS011;5911;51.036;6.972;2023-03-20T04:17:59;17.17;;;12.63;;
11709;SDS011;5911;51.036;6.972;2023-03-20T04:20:28;19.63;;;13.60;;
11709;SDS011;5911;51.036;6.972;2023-03-20T04:22:55;15.63;;;12.83;;
11709;SDS011;5911;51.036;6.972;2023-03-20T04:25:24;17.63;;;13.20;;
11709;SDS011;5911;51.036;6.972;2023-03-20T04:27:55;17.00;;;12.67;;
11709;SDS011;5911;51.036;6.972;2023-03-20T04:30:42;16.00;;;11.67;;
11709;SDS011;5911;51.036;6.972;2023-03-20T04:33:24;14.13;;;10.90;;
11709;SDS011;5911;51.036;6.972;2023-03-20T04:36:02;16.77;;;12.50;;
11709;SDS011;5911;51.036;6.972;2023-03-20T04:38:30;15.70;;;11.60;;
11709;SDS011;5911;51.036;6.972;2023-03-20T04:40:59;15.23;;;11.87;;
11709;SDS011;5911;51.036;6.972;2023-03-20T04:43:29;13.60;;;11.70;;
11709;SDS011;5911;51.036;6.972;2023-03-20T04:45:57;14.77;;;11.07;;
11709;SDS011;5911;51.036;6.972;2023-03-20T04:48:25;12.53;;;10.30;;
11709;SDS011;5911;51.036;6.972;2023-03-20T04:50:54;13.63;;;10.03;;
11709;SDS011;5911;51.036;6.972;2023-03-20T04:53:31;14.87;;;11.30;;
11709;SDS011;5911;51.036;6.972;2023-03-20T04:55:59;15.50;;;10.40;;
11709;SDS011;5911;51.036;6.972;2023-03-20T04:58:31;14.07;;;10.87;;
11709;SDS011;5911;51.036;6.972;2023-03-20T05:01:02;14.40;;;11.33;;
11709;SDS011;5911;51.036;6.972;2023-03-20T05:03:30;12.93;;;9.77;;
11709;SDS011;5911;51.036;6.972;2023-03-20T05:05:58;12.23;;;9.67;;
11709;SDS011;5911;51.036;6.972;2023-03-20T05:08:26;13.37;;;9.87;;
11709;SDS011;5911;51.036;6.972;2023-03-20T05:10:58;16.17;;;10.83;;
11709;SDS011;5911;51.036;6.972;2023-03-20T05:13:54;14.20;;;10.57;;
11709;SDS011;5911;51.036;6.972;2023-03-20T05:16:40;16.10;;;11.40;;
11709;SDS011;5911;51.036;6.972;2023-03-20T05:19:28;15.03;;;11.00;;
11709;SDS011;5911;51.036;6.972;2023-03-20T05:22:05;14.33;;;10.77;;
11709;SDS011;5911;51.036;6.972;2023-03-20T05:24:39;19.03;;;12.23;;
11709;SDS011;5911;51.036;6.972;2023-03-20T05:27:26;16.13;;;11.63;;
11709;SDS011;5911;51.036;6.972;2023-03-20T05:30:14;16.30;;;11.43;;
11709;SDS011;5911;51.036;6.972;2023-03-20T05:32:42;16.57;;;12.20;;
11709;SDS011;5911;51.036;6.972;2023-03-20T05:35:29;20.07;;;13.63;;
11709;SDS011;5911;51.036;6.972;2023-03-20T05:38:10;15.80;;;11.60;;
11709;SDS011;5911;51.036;6.972;2023-03-20T05:40:46;16.67;;;12.07;;
11709;SDS011;5911;51.036;6.972;2023-03-20T05:43:22;16.57;;;11.80;;
11709;SDS011;5911;51.036;6.972;2023-03-20T05:46:02;17.03;;;12.57;;
11709;SDS011;5911;51.036;6.972;2023-03-20T05:48:50;15.60;;;11.70;;
11709;SDS011;5911;51.036;6.972;2023-03-20T05:51:38;16.13;;;11.63;;
11709;SDS011;5911;51.036;6.972;2023-03-20T05:54:14;16.93;;;12.80;;
11709;SDS011;5911;51.036;6.972;2023-03-20T05:57:06;15.30;;;11.57;;
11709;SDS011;5911;51.036;6.972;2023-03-20T05:59:53;15.63;;;11.70;;
11709;SDS011;5911;51.036;6.972;2023-03-20T06:02:40;16.90;;;11.87;;
11709;SDS011;5911;51.036;6.972;2023-03-20T06:05:31;16.07;;;11.70;;
11709;SDS011;5911;51.036;6.972;2023-03-20T06:08:00;14.77;;;11.20;;
11709;SDS011;5911;51.036;6.972;2023-03-20T06:10:29;16.90;;;11.57;;
11709;SDS011;5911;51.036;6.972;2023-03-20T06:12:57;17.20;;;11.60;;
11709;SDS011;5911;51.036;6.972;2023-03-20T06:15:28;14.83;;;10.63;;
11709;SDS011;5911;51.036;6.972;2023-03-20T06:18:07;14.77;;;10.10;;
11709;SDS011;5911;51.036;6.972;2023-03-20T06:20:35;15.77;;;11.47;;
11709;SDS011;5911;51.036;6.972;2023-03-20T06:23:03;16.83;;;11.53;;
11709;SDS011;5911;51.036;6.972;2023-03-20T06:25:31;14.17;;;10.27;;
11709;SDS011;5911;51.036;6.972;2023-03-20T06:27:59;14.07;;;11.10;;
11709;SDS011;5911;51.036;6.972;2023-03-20T06:30:28;16.07;;;10.73;;
11709;SDS011;5911;51.036;6.972;2023-03-20T06:32:56;17.20;;;10.73;;
11709;SDS011;5911;51.036;6.972;2023-03-20T06:35:35;23.20;;;11.30;;
11709;SDS011;5911;51.036;6.972;2023-03-20T06:38:03;15.87;;;11.13;;
11709;SDS011;5911;51.036;6.972;2023-03-20T06:40:31;17.90;;;11.33;;
11709;SDS011;5911;51.036;6.972;2023-03-20T06:42:59;16.13;;;11.63;;
11709;SDS011;5911;51.036;6.972;2023-03-20T06:45:38;15.70;;;10.60;;
11709;SDS011;5911;51.036;6.972;2023-03-20T06:48:16;17.97;;;11.40;;
11709;SDS011;5911;51.036;6.972;2023-03-20T06:50:49;17.83;;;11.90;;
11709;SDS011;5911;51.036;6.972;2023-03-20T06:53:21;16.17;;;11.97;;
11709;SDS011;5911;51.036;6.972;2023-03-20T06:56:02;17.37;;;11.73;;
11709;SDS011;5911;51.036;6.972;2023-03-20T06:58:30;15.90;;;11.07;;
11709;SDS011;5911;51.036;6.972;2023-03-20T07:00:58;16.67;;;11.63;;
11709;SDS011;5911;51.036;6.972;2023-03-20T07:03:26;16.20;;;11.63;;
11709;SDS011;5911;51.036;6.972;2023-03-20T07:05:57;16.57;;;11.73;;
11709;SDS011;5911;51.036;6.972;2023-03-20T07:08:25;17.10;;;11.93;;
11709;SDS011;5911;51.036;6.972;2023-03-20T07:10:54;18.13;;;12.83;;
11709;SDS011;5911;51.036;6.972;2023-03-20T07:13:22;16.27;;;11.90;;
11709;SDS011;5911;51.036;6.972;2023-03-20T07:15:50;17.03;;;12.97;;
11709;SDS011;5911;51.036;6.972;2023-03-20T07:18:33;15.53;;;11.70;;
11709;SDS011;5911;51.036;6.972;2023-03-20T07:21:03;18.40;;;11.77;;
11709;SDS011;5911;51.036;6.972;2023-03-20T07:23:33;20.10;;;12.87;;
11709;SDS011;5911;51.036;6.972;2023-03-20T07:26:01;16.63;;;11.27;;
11709;SDS011;5911;51.036;6.972;2023-03-20T07:28:31;17.70;;;11.87;;
11709;SDS011;5911;51.036;6.972;2023-03-20T07:31:18;18.23;;;11.83;;
11709;SDS011;5911;51.036;6.972;2023-03-20T07:33:52;14.03;;;10.43;;
11709;SDS011;5911;51.036;6.972;2023-03-20T07:36:21;15.03;;;11.17;;
11709;SDS011;5911;51.036;6.972;2023-03-20T07:38:49;17.90;;;12.13;;
11709;SDS011;5911;51.036;6.972;2023-03-20T07:41:17;16.80;;;10.60;;
11709;SDS011;5911;51.036;6.972;2023-03-20T07:43:56;18.40;;;11.50;;
11709;SDS011;5911;51.036;6.972;2023-03-20T07:46:42;14.33;;;10.43;;
11709;SDS011;5911;51.036;6.972;2023-03-20T07:49:13;15.17;;;10.40;;
11709;SDS011;5911;51.036;6.972;2023-03-20T07:51:45;14.83;;;10.07;;
11709;SDS011;5911;51.036;6.972;2023-03-20T07:54:15;13.83;;;9.43;;
11709;SDS011;5911;51.036;6.972;2023-03-20T07:56:44;12.40;;;9.17;;
11709;SDS011;5911;51.036;6.972;2023-03-20T07:59:12;12.27;;;9.60;;
11709;SDS011;5911;51.036;6.972;2023-03-20T08:01:40;13.07;;;9.10;;
11709;SDS011;5911;51.036;6.972;2023-03-20T08:04:08;13.13;;;9.17;;
11709;SDS011;5911;51.036;6.972;2023-03-20T08:06:36;11.63;;;9.37;;
11709;SDS011;5911;51.036;6.972;2023-03-20T08:09:06;12.87;;;8.20;;
11709;SDS011;5911;51.036;6.972;2023-03-20T08:11:34;10.50;;;8.17;;
11709;SDS011;5911;51.036;6.972;2023-03-20T08:14:02;11.30;;;6.77;;
11709;SDS011;5911;51.036;6.972;2023-03-20T08:16:30;12.07;;;9.10;;
11709;SDS011;5911;51.036;6.972;2023-03-20T08:18:58;11.33;;;8.03;;
11709;SDS011;5911;51.036;6.972;2023-03-20T08:21:26;11.70;;;7.87;;
11709;SDS011;5911;51.036;6.972;2023-03-20T08:23:54;9.67;;;7.10;;
11709;SDS011;5911;51.036;6.972;2023-03-20T08:26:24;12.13;;;7.70;;
11709;SDS011;5911;51.036;6.972;2023-03-20T08:28:52;13.37;;;7.60;;
11709;SDS011;5911;51.036;6.972;2023-03-20T08:31:19;8.83;;;7.03;;
11709;SDS011;5911;51.036;6.972;2023-03-20T08:33:48;11.80;;;8.13;;
11709;SDS011;5911;51.036;6.972;2023-03-20T08:36:16;9.87;;;7.90;;
11709;SDS011;5911;51.036;6.972;2023-03-20T08:38:46;10.70;;;8.63;;
11709;SDS011;5911;51.036;6.972;2023-03-20T08:41:14;9.63;;;7.43;;
11709;SDS011;5911;51.036;6.972;2023-03-20T08:43:44;11.13;;;7.93;;
11709;SDS011;5911;51.036;6.972;2023-03-20T08:46:14;10.97;;;7.87;;
11709;SDS011;5911;51.036;6.972;2023-03-20T08:48:41;13.43;;;7.53;;
11709;SDS011;5911;51.036;6.972;2023-03-20T08:51:09;13.00;;;8.13;;
11709;SDS011;5911;51.036;6.972;2023-03-20T08:53:37;9.87;;;7.43;;
11709;SDS011;5911;51.036;6.972;2023-03-20T08:56:05;12.27;;;7.70;;
11709;SDS011;5911;51.036;6.972;2023-03-20T08:58:34;11.37;;;7.80;;
11709;SDS011;5911;51.036;6.972;2023-03-20T09:01:04;12.73;;;8.10;;
11709;SDS011;5911;51.036;6.972;2023-03-20T09:03:33;14.73;;;9.60;;
11709;SDS011;5911;51.036;6.972;2023-03-20T09:06:03;14.70;;;7.83;;
11709;SDS011;5911;51.036;6.972;2023-03-20T09:08:32;11.37;;;8.60;;
11709;SDS011;5911;51.036;6.972;2023-03-20T09:11:00;11.20;;;8.13;;
11709;SDS011;5911;51.036;6.972;2023-03-20T09:13:28;10.23;;;8.07;;
11709;SDS011;5911;51.036;6.972;2023-03-20T09:15:56;14.43;;;8.90;;
11709;SDS011;5911;51.036;6.972;2023-03-20T09:18:25;13.30;;;9.27;;
11709;SDS011;5911;51.036;6.972;2023-03-20T09:20:53;10.67;;;7.70;;
11709;SDS011;5911;51.036;6.972;2023-03-20T09:23:22;9.73;;;8.03;;
11709;SDS011;5911;51.036;6.972;2023-03-20T09:25:50;13.13;;;8.53;;
11709;SDS011;5911;51.036;6.972;2023-03-20T09:28:17;13.32;;;9.00;;
11709;SDS011;5911;51.036;6.972;2023-03-20T09:30:45;11.47;;;8.23;;
11709;SDS011;5911;51.036;6.972;2023-03-20T09:33:13;14.60;;;8.57;;
11709;SDS011;5911;51.036;6.972;2023-03-20T09:35:43;14.20;;;9.00;;
11709;SDS011;5911;51.036;6.972;2023-03-20T09:38:11;11.67;;;8.40;;
11709;SDS011;5911;51.036;6.972;2023-03-20T09:40:44;12.03;;;8.50;;
11709;SDS011;5911;51.036;6.972;2023-03-20T09:43:19;12.50;;;8.23;;
11709;SDS011;5911;51.036;6.972;2023-03-20T09:45:57;12.43;;;8.33;;
11709;SDS011;5911;51.036;6.972;2023-03-20T09:48:34;9.40;;;8.33;;
11709;SDS011;5911;51.036;6.972;2023-03-20T09:51:12;9.50;;;8.20;;
11709;SDS011;5911;51.036;6.972;2023-03-20T09:53:48;11.10;;;7.57;;
11709;SDS011;5911;51.036;6.972;2023-03-20T09:56:26;10.43;;;8.53;;
11709;SDS011;5911;51.036;6.972;2023-03-20T09:58:57;12.00;;;8.70;;
11709;SDS011;5911;51.036;6.972;2023-03-20T10:01:29;12.57;;;8.98;;
11709;SDS011;5911;51.036;6.972;2023-03-20T10:04:00;11.77;;;8.45;;
11709;SDS011;5911;51.036;6.972;2023-03-20T10:06:35;12.53;;;9.00;;
11709;SDS011;5911;51.036;6.972;2023-03-20T10:09:05;11.00;;;8.63;;
11709;SDS011;5911;51.036;6.972;2023-03-20T10:11:47;12.90;;;8.50;;
11709;SDS011;5911;51.036;6.972;2023-03-20T10:14:26;12.33;;;7.80;;
11709;SDS011;5911;51.036;6.972;2023-03-20T10:17:08;12.67;;;8.60;;
11709;SDS011;5911;51.036;6.972;2023-03-20T10:19:48;14.47;;;8.47;;
11709;SDS011;5911;51.036;6.972;2023-03-20T10:22:21;9.87;;;6.33;;
11709;SDS011;5911;51.036;6.972;2023-03-20T10:24:53;11.70;;;7.30;;
11709;SDS011;5911;51.036;6.972;2023-03-20T10:27:25;8.93;;;6.17;;
11709;SDS011;5911;51.036;6.972;2023-03-20T10:30:00;9.63;;;5.47;;
11709;SDS011;5911;51.036;6.972;2023-03-20T10:32:40;7.13;;;4.10;;
11709;SDS011;5911;51.036;6.972;2023-03-20T10:35:16;7.63;;;4.37;;
11709;SDS011;5911;51.036;6.972;2023-03-20T10:38:00;10.80;;;4.43;;
11709;SDS011;5911;51.036;6.972;2023-03-20T10:40:40;7.85;;;4.50;;
11709;SDS011;5911;51.036;6.972;2023-03-20T10:43:10;8.63;;;4.60;;
11709;SDS011;5911;51.036;6.972;2023-03-20T10:45:44;6.35;;;4.50;;
11709;SDS011;5911;51.036;6.972;2023-03-20T10:48:16;6.57;;;3.80;;
11709;SDS011;5911;51.036;6.972;2023-03-20T10:50:49;7.17;;;4.87;;
11709;SDS011;5911;51.036;6.972;2023-03-20T10:53:25;6.57;;;4.17;;
11709;SDS011;5911;51.036;6.972;2023-03-20T10:55:57;6.47;;;3.93;;
11709;SDS011;5911;51.036;6.972;2023-03-20T10:58:30;6.37;;;4.33;;
11709;SDS011;5911;51.036;6.972;2023-03-20T11:00:59;7.87;;;4.27;;
11709;SDS011;5911;51.036;6.972;2023-03-20T11:03:28;7.23;;;4.03;;
11709;SDS011;5911;51.036;6.972;2023-03-20T11:05:58;4.67;;;3.60;;
11709;SDS011;5911;51.036;6.972;2023-03-20T11:08:38;6.70;;;4.00;;
11709;SDS011;5911;51.036;6.972;2023-03-20T11:11:08;7.20;;;3.67;;
11709;SDS011;5911;51.036;6.972;2023-03-20T11:13:37;7.73;;;3.87;;
11709;SDS011;5911;51.036;6.972;2023-03-20T11:16:18;7.03;;;3.57;;
11709;SDS011;5911;51.036;6.972;2023-03-20T11:18:48;7.13;;;4.03;;
11709;SDS011;5911;51.036;6.972;2023-03-20T11:21:18;8.13;;;3.73;;
11709;SDS011;5911;51.036;6.972;2023-03-20T11:23:49;7.77;;;3.40;;
11709;SDS011;5911;51.036;6.972;2023-03-20T11:26:19;9.33;;;4.03;;
11709;SDS011;5911;51.036;6.972;2023-03-20T11:28:59;8.17;;;3.77;;
11709;SDS011;5911;51.036;6.972;2023-03-20T11:31:28;6.00;;;3.43;;
11709;SDS011;5911;51.036;6.972;2023-03-20T11:34:08;5.50;;;3.80;;
11709;SDS011;5911;51.036;6.972;2023-03-20T11:36:46;7.07;;;4.00;;
11709;SDS011;5911;51.036;6.972;2023-03-20T11:39:36;7.60;;;3.90;;
11709;SDS011;5911;51.036;6.972;2023-03-20T11:42:20;8.93;;;3.80;;
11709;SDS011;5911;51.036;6.972;2023-03-20T11:44:55;8.60;;;4.33;;
11709;SDS011;5911;51.036;6.972;2023-03-20T11:47:25;6.50;;;3.63;;
11709;SDS011;5911;51.036;6.972;2023-03-20T11:49:55;6.70;;;4.10;;
11709;SDS011;5911;51.036;6.972;2023-03-20T11:52:24;8.13;;;3.27;;
11709;SDS011;5911;51.036;6.972;2023-03-20T11:54:58;4.77;;;3.17;;
11709;SDS011;5911;51.036;6.972;2023-03-20T11:57:29;7.73;;;3.93;;
11709;SDS011;5911;51.036;6.972;2023-03-20T12:00:00;5.97;;;3.50;;
11709;SDS011;5911;51.036;6.972;2023-03-20T12:02:31;6.57;;;3.93;;
11709;SDS011;5911;51.036;6.972;2023-03-20T12:05:06;6.27;;;3.60;;
11709;SDS011;5911;51.036;6.972;2023-03-20T12:07:45;7.47;;;3.70;;
11709;SDS011;5911;51.036;6.972;2023-03-20T12:10:16;5.47;;;3.37;;
11709;SDS011;5911;51.036;6.972;2023-03-20T12:12:46;5.03;;;3.17;;
11709;SDS011;5911;51.036;6.972;2023-03-20T12:15:17;8.83;;;4.00;;
11709;SDS011;5911;51.036;6.972;2023-03-20T12:17:52;8.57;;;3.73;;
11709;SDS011;5911;51.036;6.972;2023-03-20T12:20:26;7.47;;;3.70;;
11709;SDS011;5911;51.036;6.972;2023-03-20T12:23:03;7.43;;;3.40;;
11709;SDS011;5911;51.036;6.972;2023-03-20T12:25:39;5.17;;;3.33;;
11709;SDS011;5911;51.036;6.972;2023-03-20T12:28:17;7.27;;;4.07;;
11709;SDS011;5911;51.036;6.972;2023-03-20T12:30:57;5.77;;;3.73;;
11709;SDS011;5911;51.036;6.972;2023-03-20T12:33:33;5.43;;;3.57;;
11709;SDS011;5911;51.036;6.972;2023-03-20T12:36:08;6.97;;;3.63;;
11709;SDS011;5911;51.036;6.972;2023-03-20T12:38:40;6.77;;;3.60;;
11709;SDS011;5911;51.036;6.972;2023-03-20T12:41:11;10.30;;;4.00;;
11709;SDS011;5911;51.036;6.972;2023-03-20T12:43:45;8.57;;;3.77;;
11709;SDS011;5911;51.036;6.972;2023-03-20T12:46:27;6.45;;;3.75;;
11709;SDS011;5911;51.036;6.972;2023-03-20T12:49:02;4.97;;;3.57;;
11709;SDS011;5911;51.036;6.972;2023-03-20T12:51:41;6.70;;;3.83;;
11709;SDS011;5911;51.036;6.972;2023-03-20T12:54:21;6.63;;;3.63;;
11709;SDS011;5911;51.036;6.972;2023-03-20T12:57:07;8.30;;;3.47;;
11709;SDS011;5911;51.036;6.972;2023-03-20T12:59:47;7.57;;;4.45;;
11709;SDS011;5911;51.036;6.972;2023-03-20T13:02:28;4.07;;;3.17;;
11709;SDS011;5911;51.036;6.972;2023-03-20T13:05:02;5.57;;;3.37;;
11709;SDS011;5911;51.036;6.972;2023-03-20T13:07:47;4.13;;;2.90;;
11709;SDS011;5911;51.036;6.972;2023-03-20T13:10:28;4.07;;;2.50;;
11709;SDS011;5911;51.036;6.972;2023-03-20T13:13:05;3.77;;;2.20;;
11709;SDS011;5911;51.036;6.972;2023-03-20T13:15:52;4.60;;;2.70;;
11709;SDS011;5911;51.036;6.972;2023-03-20T13:18:34;4.33;;;2.50;;
11709;SDS011;5911;51.036;6.972;2023-03-20T13:21:12;6.10;;;2.03;;
11709;SDS011;5911;51.036;6.972;2023-03-20T13:23:47;3.73;;;2.40;;
11709;SDS011;5911;51.036;6.972;2023-03-20T13:26:26;3.10;;;2.17;;
11709;SDS011;5911;51.036;6.972;2023-03-20T13:29:03;3.90;;;1.93;;
11709;SDS011;5911;51.036;6.972;2023-03-20T13:31:41;5.07;;;2.03;;
11709;SDS011;5911;51.036;6.972;2023-03-20T13:34:24;5.13;;;2.63;;
11709;SDS011;5911;51.036;6.972;2023-03-20T13:37:06;5.13;;;2.07;;
11709;SDS011;5911;51.036;6.972;2023-03-20T13:39:53;5.57;;;2.43;;
11709;SDS011;5911;51.036;6.972;2023-03-20T13:42:28;4.10;;;2.55;;
11709;SDS011;5911;51.036;6.972;2023-03-20T13:45:01;3.27;;;2.10;;
11709;SDS011;5911;51.036;6.972;2023-03-20T13:47:33;2.97;;;2.30;;
11709;SDS011;5911;51.036;6.972;2023-03-20T13:52:51;7.33;;;2.67;;
11709;SDS011;5911;51.036;6.972;2023-03-20T13:55:28;4.37;;;2.20;;
11709;SDS011;5911;51.036;6.972;2023-03-20T13:58:06;4.13;;;2.00;;
11709;SDS011;5911;51.036;6.972;2023-03-20T14:00:50;3.50;;;2.10;;
11709;SDS011;5911;51.036;6.972;2023-03-20T14:03:26;5.87;;;2.30;;
11709;SDS011;5911;51.036;6.972;2023-03-20T14:05:57;3.70;;;2.23;;
11709;SDS011;5911;51.036;6.972;2023-03-20T14:08:30;4.00;;;2.00;;
11709;SDS011;5911;51.036;6.972;2023-03-20T14:14:06;5.00;;;1.73;;
11709;SDS011;5911;51.036;6.972;2023-03-20T14:16:42;4.73;;;1.90;;
11709;SDS011;5911;51.036;6.972;2023-03-20T14:19:14;5.00;;;2.20;;
11709;SDS011;5911;51.036;6.972;2023-03-20T14:21:44;8.97;;;2.80;;
11709;SDS011;5911;51.036;6.972;2023-03-20T14:24:14;4.10;;;2.20;;
11709;SDS011;5911;51.036;6.972;2023-03-20T14:26:46;5.43;;;2.20;;
11709;SDS011;5911;51.036;6.972;2023-03-20T14:29:25;7.73;;;2.47;;
11709;SDS011;5911;51.036;6.972;2023-03-20T14:35:20;8.50;;;2.63;;
11709;SDS011;5911;51.036;6.972;2023-03-20T14:37:58;5.47;;;2.20;;
11709;SDS011;5911;51.036;6.972;2023-03-20T14:40:48;4.13;;;2.23;;
11709;SDS011;5911;51.036;6.972;2023-03-20T14:43:26;3.83;;;2.50;;
11709;SDS011;5911;51.036;6.972;2023-03-20T14:46:07;6.63;;;2.70;;
11709;SDS011;5911;51.036;6.972;2023-03-20T14:48:49;8.63;;;2.60;;
11709;SDS011;5911;51.036;6.972;2023-03-20T14:51:21;6.95;;;3.08;;
11709;SDS011;5911;51.036;6.972;2023-03-20T14:54:21;6.13;;;2.78;;
11709;SDS011;5911;51.036;6.972;2023-03-20T14:56:52;6.50;;;2.70;;
11709;SDS011;5911;51.036;6.972;2023-03-20T14:59:21;6.23;;;2.60;;
11709;SDS011;5911;51.036;6.972;2023-03-20T15:01:55;9.57;;;2.53;;
11709;SDS011;5911;51.036;6.972;2023-03-20T15:04:28;8.23;;;3.05;;
11709;SDS011;5911;51.036;6.972;2023-03-20T15:07:02;13.95;;;3.05;;
11709;SDS011;5911;51.036;6.972;2023-03-20T15:09:33;12.38;;;2.80;;
11709;SDS011;5911;51.036;6.972;2023-03-20T15:12:08;4.80;;;2.40;;
11709;SDS011;5911;51.036;6.972;2023-03-20T15:14:41;10.13;;;2.72;;
11709;SDS011;5911;51.036;6.972;2023-03-20T15:17:17;7.53;;;2.75;;
11709;SDS011;5911;51.036;6.972;2023-03-20T15:19:51;6.50;;;2.27;;
11709;SDS011;5911;51.036;6.972;2023-03-20T15:22:26;7.20;;;2.80;;
11709;SDS011;5911;51.036;6.972;2023-03-20T15:24:55;5.32;;;2.08;;
11709;SDS011;5911;51.036;6.972;2023-03-20T15:27:24;8.13;;;3.47;;
11709;SDS011;5911;51.036;6.972;2023-03-20T15:29:55;8.47;;;2.97;;
11709;SDS011;5911;51.036;6.972;2023-03-20T15:32:24;6.53;;;2.85;;
11709;SDS011;5911;51.036;6.972;2023-03-20T15:34:53;6.27;;;2.90;;
11709;SDS011;5911;51.036;6.972;2023-03-20T15:37:22;7.95;;;2.80;;
11709;SDS011;5911;51.036;6.972;2023-03-20T15:39:51;7.73;;;3.40;;
11709;SDS011;5911;51.036;6.972;2023-03-20T15:42:22;9.68;;;3.20;;
11709;SDS011;5911;51.036;6.972;2023-03-20T15:44:53;9.65;;;2.55;;